createdAt,value
2023-01-01T00:00:44.280Z,13.27
2023-01-01T00:03:31.584Z,15.00
2023-01-01T00:05:58.604Z,12.40
2023-01-01T00:08:25.756Z,14.03
2023-01-01T00:11:08.560Z,15.63
2023-01-01T00:13:37.537Z,10.23
2023-01-01T00:16:08.763Z,13.33
2023-01-01T00:18:36.648Z,10.63
2023-01-01T00:21:09.676Z,11.57
2023-01-01T00:23:37.083Z,11.17
2023-01-01T00:26:15.818Z,10.23
2023-01-01T00:28:44.016Z,8.50
2023-01-01T00:31:19.986Z,9.97
2023-01-01T00:33:51.083Z,10.73
2023-01-01T00:36:19.827Z,11.53
2023-01-01T00:38:47.103Z,9.70
2023-01-01T00:41:15.252Z,10.67
2023-01-01T00:43:43.204Z,9.47
2023-01-01T00:46:11.167Z,8.73
2023-01-01T00:48:38.872Z,10.37
2023-01-01T00:51:06.174Z,8.80
2023-01-01T00:53:33.694Z,9.37
2023-01-01T00:56:00.831Z,9.57
2023-01-01T00:58:28.289Z,8.97
2023-01-01T01:00:55.436Z,10.17
2023-01-01T01:03:30.093Z,11.67
2023-01-01T01:06:09.855Z,10.67
2023-01-01T01:08:39.449Z,11.37
2023-01-01T01:11:25.786Z,10.67
2023-01-01T01:13:56.050Z,10.90
2023-01-01T01:16:27.184Z,10.80
2023-01-01T01:18:58.173Z,14.20
2023-01-01T01:21:26.890Z,12.47
2023-01-01T01:23:55.036Z,9.60
2023-01-01T01:26:26.944Z,10.37
2023-01-01T01:28:54.718Z,11.13
2023-01-01T01:31:23.508Z,12.20
2023-01-01T01:33:51.612Z,12.30
2023-01-01T01:36:19.351Z,10.03
2023-01-01T01:38:47.491Z,13.53
2023-01-01T01:41:27.265Z,9.20
2023-01-01T01:44:01.862Z,10.43
2023-01-01T01:46:37.654Z,10.03
2023-01-01T01:49:13.990Z,10.77
2023-01-01T01:51:41.976Z,11.10
2023-01-01T01:54:17.771Z,11.47
2023-01-01T01:56:52.516Z,10.43
2023-01-01T01:59:22.671Z,10.23
2023-01-01T02:01:49.809Z,15.23
2023-01-01T02:04:17.670Z,9.47
2023-01-01T02:06:45.315Z,12.27
2023-01-01T02:09:13.777Z,13.23
2023-01-01T02:11:40.691Z,10.87
2023-01-01T02:14:08.138Z,12.63
2023-01-01T02:16:55.051Z,9.50
2023-01-01T02:19:49.992Z,11.73
2023-01-01T02:22:38.001Z,11.73
2023-01-01T02:25:28.696Z,10.43
2023-01-01T02:28:05.771Z,9.77
2023-01-01T02:30:35.231Z,8.10
2023-01-01T02:33:15.194Z,8.70
2023-01-01T02:35:48.767Z,8.73
2023-01-01T02:38:44.121Z,8.50
2023-01-01T02:41:14.061Z,10.20
2023-01-01T02:43:42.837Z,9.10
2023-01-01T02:46:12.657Z,11.20
2023-01-01T02:48:41.711Z,9.70
2023-01-01T02:51:36.820Z,8.80
2023-01-01T02:54:18.294Z,8.60
2023-01-01T02:57:03.545Z,9.30
2023-01-01T03:00:27.562Z,9.27
2023-01-01T03:03:09.608Z,9.93
2023-01-01T03:06:10.520Z,8.53
2023-01-01T03:08:49.926Z,9.43
2023-01-01T03:11:19.853Z,8.53
2023-01-01T03:13:59.200Z,7.97
2023-01-01T03:16:39.073Z,8.00
2023-01-01T03:19:17.905Z,7.30
2023-01-01T03:22:09.110Z,7.23
2023-01-01T03:24:36.303Z,9.10
2023-01-01T03:27:15.521Z,8.27
2023-01-01T03:29:44.166Z,8.30
2023-01-01T03:32:16.143Z,8.17
2023-01-01T03:34:53.623Z,8.63
2023-01-01T03:37:26.169Z,9.67
2023-01-01T03:39:58.952Z,9.33
2023-01-01T03:42:36.426Z,8.27
2023-01-01T03:45:17.289Z,8.03
2023-01-01T03:47:44.312Z,8.67
2023-01-01T03:50:13.152Z,8.50
2023-01-01T03:53:10.413Z,9.47
2023-01-01T03:55:49.545Z,9.73
2023-01-01T03:58:31.917Z,7.30
2023-01-01T04:01:08.953Z,11.20
2023-01-01T04:03:38.865Z,7.33
2023-01-01T04:06:07.015Z,7.10
2023-01-01T04:08:35.533Z,6.70
2023-01-01T04:11:33.946Z,7.80
2023-01-01T04:14:00.892Z,7.83
2023-01-01T04:16:28.315Z,8.53
2023-01-01T04:18:55.359Z,8.37
2023-01-01T04:21:22.762Z,8.77
2023-01-01T04:23:49.720Z,8.83
2023-01-01T04:26:17.085Z,8.77
2023-01-01T04:28:44.248Z,7.80
2023-01-01T04:31:11.865Z,7.73
2023-01-01T04:33:38.847Z,6.90
2023-01-01T04:36:10.454Z,8.20
2023-01-01T04:38:38.228Z,8.10
2023-01-01T04:41:05.753Z,7.63
2023-01-01T04:43:32.717Z,8.00
2023-01-01T04:46:04.387Z,7.97
2023-01-01T04:48:32.019Z,10.80
2023-01-01T04:51:02.543Z,7.70
2023-01-01T04:53:31.441Z,7.93
2023-01-01T04:56:06.073Z,7.60
2023-01-01T04:58:34.344Z,7.77
2023-01-01T05:01:01.839Z,7.43
2023-01-01T05:03:29.276Z,7.60
2023-01-01T05:06:00.560Z,7.10
2023-01-01T05:08:29.707Z,9.13
2023-01-01T05:11:07.573Z,7.40
2023-01-01T05:13:35.593Z,7.37
2023-01-01T05:16:04.325Z,7.47
2023-01-01T05:18:31.884Z,6.67
2023-01-01T05:21:04.004Z,7.97
2023-01-01T05:23:31.623Z,7.43
2023-01-01T05:25:59.287Z,7.53
2023-01-01T05:28:26.672Z,7.87
2023-01-01T05:30:54.174Z,10.90
2023-01-01T05:33:21.224Z,7.17
2023-01-01T05:35:54.661Z,7.47
2023-01-01T05:38:21.606Z,9.93
2023-01-01T05:40:48.880Z,7.20
2023-01-01T05:43:17.952Z,7.80
2023-01-01T05:45:45.305Z,9.47
2023-01-01T05:48:12.392Z,7.20
2023-01-01T05:50:39.642Z,9.23
2023-01-01T05:53:06.604Z,7.30
2023-01-01T05:55:33.899Z,6.67
2023-01-01T05:58:00.848Z,8.43
2023-01-01T06:00:28.460Z,9.27
2023-01-01T06:02:56.490Z,6.57
2023-01-01T06:05:23.858Z,6.97
2023-01-01T06:07:50.857Z,7.20
2023-01-01T06:10:18.066Z,7.87
2023-01-01T06:12:44.995Z,7.90
2023-01-01T06:15:12.189Z,8.30
2023-01-01T06:17:39.117Z,7.27
2023-01-01T06:20:06.783Z,6.67
2023-01-01T06:22:36.892Z,7.53
2023-01-01T06:25:04.413Z,6.97
2023-01-01T06:27:31.431Z,7.37
2023-01-01T06:29:58.741Z,7.43
2023-01-01T06:32:25.729Z,7.60
2023-01-01T06:34:52.959Z,7.20
2023-01-01T06:37:20.113Z,6.77
2023-01-01T06:39:47.407Z,7.20
2023-01-01T06:42:14.407Z,7.40
2023-01-01T06:44:41.711Z,6.90
2023-01-01T06:47:08.704Z,7.27
2023-01-01T06:49:35.923Z,7.03
2023-01-01T06:52:02.859Z,8.40
2023-01-01T06:54:30.082Z,8.37
2023-01-01T06:56:57.104Z,8.37
2023-01-01T06:59:24.332Z,8.70
2023-01-01T07:01:51.387Z,7.90
2023-01-01T07:04:18.705Z,10.30
2023-01-01T07:06:45.744Z,7.73
2023-01-01T07:09:13.077Z,9.00
2023-01-01T07:11:40.103Z,8.50
2023-01-01T07:14:07.359Z,10.17
2023-01-01T07:16:34.469Z,7.20
2023-01-01T07:19:01.809Z,8.50
2023-01-01T07:21:43.537Z,7.70
2023-01-01T07:24:13.807Z,8.13
2023-01-01T07:26:41.281Z,7.80
2023-01-01T07:29:09.036Z,7.70
2023-01-01T07:31:38.022Z,8.37
2023-01-01T07:34:06.998Z,7.10
2023-01-01T07:36:34.534Z,8.70
2023-01-01T07:39:01.860Z,6.73
2023-01-01T07:41:28.856Z,6.43
2023-01-01T07:43:56.041Z,8.50
2023-01-01T07:46:23.046Z,8.87
2023-01-01T07:48:50.342Z,6.23
2023-01-01T07:51:17.460Z,10.33
2023-01-01T07:53:44.632Z,8.23
2023-01-01T07:56:11.631Z,7.93
2023-01-01T07:58:40.428Z,8.17
2023-01-01T08:01:11.816Z,9.57
2023-01-01T08:03:39.475Z,10.90
2023-01-01T08:06:08.846Z,9.37
2023-01-01T08:08:36.169Z,9.10
2023-01-01T08:11:04.341Z,8.50
2023-01-01T08:13:31.768Z,8.43
2023-01-01T08:15:59.195Z,7.20
2023-01-01T08:18:26.639Z,10.70
2023-01-01T08:20:54.230Z,9.37
2023-01-01T08:23:21.559Z,11.47
2023-01-01T08:25:48.548Z,7.43
2023-01-01T08:28:15.736Z,7.90
2023-01-01T08:30:42.938Z,9.77
2023-01-01T08:33:10.151Z,9.93
2023-01-01T08:35:40.534Z,8.20
2023-01-01T08:38:11.029Z,11.20
2023-01-01T08:40:38.342Z,12.47
2023-01-01T08:43:05.798Z,9.83
2023-01-01T08:45:32.800Z,9.20
2023-01-01T08:48:00.572Z,9.17
2023-01-01T08:50:27.741Z,8.63
2023-01-01T08:52:55.161Z,9.93
2023-01-01T08:55:22.132Z,8.53
2023-01-01T08:57:49.408Z,8.83
2023-01-01T09:00:17.097Z,14.57
2023-01-01T09:02:44.476Z,11.30
2023-01-01T09:05:11.585Z,10.23
2023-01-01T09:07:38.893Z,11.60
2023-01-01T09:10:06.476Z,9.40
2023-01-01T09:12:33.666Z,7.83
2023-01-01T09:15:00.628Z,8.43
2023-01-01T09:17:27.874Z,9.83
2023-01-01T09:19:54.787Z,9.47
2023-01-01T09:22:22.043Z,8.37
2023-01-01T09:24:48.955Z,7.03
2023-01-01T09:27:16.245Z,8.20
2023-01-01T09:29:43.193Z,11.77
2023-01-01T09:32:10.448Z,7.50
2023-01-01T09:34:37.487Z,10.47
2023-01-01T09:37:04.673Z,6.90
2023-01-01T09:39:31.600Z,7.20
2023-01-01T09:42:21.482Z,4.37
2023-01-01T09:45:03.411Z,9.60
2023-01-01T09:47:39.883Z,8.73
2023-01-01T09:50:20.113Z,6.87
2023-01-01T09:52:57.720Z,9.67
2023-01-01T09:55:38.981Z,7.37
2023-01-01T09:58:08.953Z,12.30
2023-01-01T10:00:37.906Z,7.83
2023-01-01T10:03:34.356Z,6.50
2023-01-01T10:06:22.674Z,7.93
2023-01-01T10:09:24.241Z,7.73
2023-01-01T10:11:57.388Z,9.37
2023-01-01T10:14:31.893Z,5.40
2023-01-01T10:17:17.143Z,7.00
2023-01-01T10:20:00.561Z,13.17
2023-01-01T10:22:42.762Z,9.00
2023-01-01T10:25:28.006Z,9.47
2023-01-01T10:28:33.388Z,8.17
2023-01-01T10:31:34.595Z,15.50
2023-01-01T10:34:15.920Z,9.97
2023-01-01T10:36:46.864Z,8.43
2023-01-01T10:39:17.660Z,9.20
2023-01-01T10:41:45.713Z,7.50
2023-01-01T10:44:15.411Z,8.97
2023-01-01T10:46:48.675Z,10.77
2023-01-01T10:49:16.561Z,10.43
2023-01-01T10:51:49.713Z,9.60
2023-01-01T10:54:42.514Z,8.60
2023-01-01T10:57:16.273Z,11.70
2023-01-01T10:59:50.072Z,10.27
2023-01-01T11:02:26.320Z,11.57
2023-01-01T11:05:17.675Z,10.50
2023-01-01T11:07:48.512Z,7.77
2023-01-01T11:10:22.341Z,7.33
2023-01-01T11:13:07.024Z,14.37
2023-01-01T11:15:40.442Z,8.80
2023-01-01T11:18:36.190Z,6.07
2023-01-01T11:21:06.030Z,8.53
2023-01-01T11:23:38.082Z,10.13
2023-01-01T11:26:05.127Z,8.33
2023-01-01T11:28:35.140Z,10.47
2023-01-01T11:31:06.611Z,6.13
2023-01-01T11:33:40.180Z,10.30
2023-01-01T11:36:07.709Z,6.30
2023-01-01T11:38:35.045Z,9.10
2023-01-01T11:41:06.994Z,6.53
2023-01-01T11:43:54.553Z,10.00
2023-01-01T11:46:25.197Z,7.83
2023-01-01T11:48:54.789Z,7.07
2023-01-01T11:51:32.813Z,7.73
2023-01-01T11:54:30.776Z,9.53
2023-01-01T11:57:13.277Z,9.73
2023-01-01T11:59:54.276Z,9.63
2023-01-01T12:02:47.666Z,6.33
2023-01-01T12:05:25.612Z,10.60
2023-01-01T12:07:53.287Z,7.47
2023-01-01T12:10:33.489Z,7.73
2023-01-01T12:13:14.372Z,5.27
2023-01-01T12:15:47.512Z,9.30
2023-01-01T12:19:08.176Z,6.37
2023-01-01T12:21:36.905Z,6.27
2023-01-01T12:24:05.294Z,9.27
2023-01-01T12:26:57.779Z,10.77
2023-01-01T12:30:15.068Z,11.63
2023-01-01T12:33:08.784Z,5.07
2023-01-01T12:35:54.789Z,8.97
2023-01-01T12:38:59.629Z,8.47
2023-01-01T12:41:40.282Z,10.17
2023-01-01T12:44:31.148Z,7.10
2023-01-01T12:47:15.883Z,6.03
2023-01-01T12:49:51.525Z,6.23
2023-01-01T12:52:52.077Z,7.80
2023-01-01T12:55:37.966Z,10.17
2023-01-01T12:58:15.654Z,7.17
2023-01-01T13:00:54.690Z,11.40
2023-01-01T13:03:36.607Z,6.57
2023-01-01T13:06:06.561Z,10.90
2023-01-01T13:08:35.451Z,8.67
2023-01-01T13:11:04.793Z,8.60
2023-01-01T13:13:31.839Z,6.97
2023-01-01T13:15:59.271Z,8.80
2023-01-01T13:18:27.699Z,8.40
2023-01-01T13:21:16.151Z,8.87
2023-01-01T13:23:44.838Z,12.40
2023-01-01T13:26:36.362Z,9.97
2023-01-01T13:29:05.450Z,6.43
2023-01-01T13:31:39.335Z,8.47
2023-01-01T13:34:30.846Z,10.97
2023-01-01T13:37:10.245Z,7.47
2023-01-01T13:39:59.895Z,10.70
2023-01-01T13:42:59.230Z,9.97
2023-01-01T13:48:41.793Z,9.70
2023-01-01T13:52:02.986Z,5.07
2023-01-01T13:54:49.240Z,9.10
2023-01-01T13:57:35.744Z,3.97
2023-01-01T14:00:30.087Z,7.63
2023-01-01T14:03:01.498Z,5.53
2023-01-01T14:05:45.559Z,6.10
2023-01-01T14:08:30.456Z,12.00
2023-01-01T14:11:00.836Z,7.13
2023-01-01T14:13:32.333Z,9.47
2023-01-01T14:16:03.779Z,7.77
2023-01-01T14:18:45.243Z,6.33
2023-01-01T14:21:15.452Z,8.50
2023-01-01T14:24:04.614Z,11.17
2023-01-01T14:26:33.739Z,10.70
2023-01-01T14:29:06.188Z,10.47
2023-01-01T14:31:41.695Z,9.20
2023-01-01T14:34:28.607Z,7.97
2023-01-01T14:37:04.196Z,8.57
2023-01-01T14:39:36.160Z,8.37
2023-01-01T14:42:12.146Z,6.93
2023-01-01T14:44:49.041Z,6.93
2023-01-01T14:47:22.227Z,9.20
2023-01-01T14:49:50.578Z,9.77
2023-01-01T14:52:26.608Z,10.63
2023-01-01T14:54:55.830Z,9.80
2023-01-01T14:57:30.292Z,10.27
2023-01-01T14:59:57.358Z,9.87
2023-01-01T15:02:30.432Z,5.43
2023-01-01T15:05:15.063Z,9.37
2023-01-01T15:07:42.312Z,7.73
2023-01-01T15:10:13.207Z,6.90
2023-01-01T15:12:43.045Z,7.47
2023-01-01T15:15:35.863Z,6.03
2023-01-01T15:18:03.400Z,8.00
2023-01-01T15:20:31.152Z,8.67
2023-01-01T15:22:59.343Z,7.00
2023-01-01T15:25:29.560Z,8.03
2023-01-01T15:27:58.090Z,12.60
2023-01-01T15:30:32.167Z,10.80
2023-01-01T15:33:16.511Z,7.37
2023-01-01T15:35:51.428Z,7.40
2023-01-01T15:38:23.755Z,7.43
2023-01-01T15:40:53.667Z,9.10
2023-01-01T15:43:27.081Z,10.43
2023-01-01T15:45:55.383Z,7.90
2023-01-01T15:48:30.823Z,9.80
2023-01-01T15:51:13.108Z,9.23
2023-01-01T15:53:49.396Z,9.90
2023-01-01T15:56:17.015Z,8.80
2023-01-01T15:58:56.307Z,6.07
2023-01-01T16:01:26.991Z,8.13
2023-01-01T16:04:08.193Z,8.87
2023-01-01T16:06:52.467Z,7.43
2023-01-01T16:09:21.533Z,8.33
2023-01-01T16:11:53.454Z,6.90
2023-01-01T16:14:20.791Z,10.07
2023-01-01T16:16:55.208Z,7.87
2023-01-01T16:19:23.147Z,9.50
2023-01-01T16:21:51.168Z,7.10
2023-01-01T16:24:19.938Z,9.57
2023-01-01T16:26:47.882Z,6.73
2023-01-01T16:29:15.324Z,8.00
2023-01-01T16:31:43.705Z,7.37
2023-01-01T16:34:14.613Z,6.03
2023-01-01T16:36:42.703Z,8.57
2023-01-01T16:39:10.591Z,7.60
2023-01-01T16:41:41.341Z,10.23
2023-01-01T16:44:12.049Z,8.17
2023-01-01T16:46:39.080Z,10.07
2023-01-01T16:49:06.382Z,8.87
2023-01-01T16:51:34.559Z,7.50
2023-01-01T16:54:01.996Z,10.23
2023-01-01T16:56:29.518Z,9.30
2023-01-01T16:59:02.682Z,9.03
2023-01-01T17:01:30.124Z,6.37
2023-01-01T17:03:57.774Z,8.43
2023-01-01T17:06:24.848Z,6.87
2023-01-01T17:08:52.091Z,9.13
2023-01-01T17:11:20.542Z,9.70
2023-01-01T17:13:48.251Z,9.10
2023-01-01T17:16:26.054Z,7.13
2023-01-01T17:21:43.304Z,10.73
2023-01-01T17:24:10.522Z,9.17
2023-01-01T17:26:37.554Z,8.87
2023-01-01T17:29:07.145Z,7.63
2023-01-01T17:31:34.650Z,9.70
2023-01-01T17:34:02.337Z,7.63
2023-01-01T17:36:29.810Z,10.60
2023-01-01T17:38:57.611Z,9.60
2023-01-01T17:41:24.864Z,8.87
2023-01-01T17:43:52.752Z,11.20
2023-01-01T17:46:22.815Z,11.30
2023-01-01T17:48:50.826Z,10.27
2023-01-01T17:51:19.000Z,8.00
2023-01-01T17:53:46.875Z,8.40
2023-01-01T17:56:17.303Z,9.20
2023-01-01T17:58:45.979Z,8.23
2023-01-01T18:01:13.156Z,8.07
2023-01-01T18:03:41.372Z,10.27
2023-01-01T18:06:08.896Z,9.73
2023-01-01T18:08:36.141Z,9.30
2023-01-01T18:11:03.131Z,11.97
2023-01-01T18:13:30.387Z,8.30
2023-01-01T18:16:03.097Z,10.73
2023-01-01T18:18:33.731Z,15.27
2023-01-01T18:21:07.590Z,8.50
2023-01-01T18:23:36.828Z,14.53
2023-01-01T18:26:06.141Z,10.27
2023-01-01T18:28:33.879Z,9.90
2023-01-01T18:31:09.688Z,9.53
2023-01-01T18:33:37.155Z,10.97
2023-01-01T18:36:12.193Z,11.87
2023-01-01T18:38:41.141Z,14.90
2023-01-01T18:41:45.452Z,9.73
2023-01-01T18:44:26.616Z,9.90
2023-01-01T18:46:59.344Z,10.87
2023-01-01T18:49:26.768Z,14.10
2023-01-01T18:52:20.386Z,10.60
2023-01-01T18:54:47.619Z,9.60
2023-01-01T18:57:28.919Z,12.33
2023-01-01T19:00:18.461Z,10.47
2023-01-01T19:02:50.600Z,13.20
2023-01-01T19:05:31.763Z,14.43
2023-01-01T19:08:07.812Z,10.07
2023-01-01T19:10:54.741Z,12.50
2023-01-01T19:13:40.228Z,10.63
2023-01-01T19:16:25.310Z,13.60
2023-01-01T19:18:53.667Z,10.70
2023-01-01T19:21:24.244Z,13.80
2023-01-01T19:23:55.608Z,8.40
2023-01-01T19:26:39.479Z,11.30
2023-01-01T19:29:17.306Z,12.20
2023-01-01T19:31:49.651Z,11.57
2023-01-01T19:34:17.127Z,12.70
2023-01-01T19:36:44.659Z,14.43
2023-01-01T19:39:11.923Z,13.83
2023-01-01T19:41:39.543Z,15.63
2023-01-01T19:44:10.155Z,13.23
2023-01-01T19:46:37.741Z,12.33
2023-01-01T19:49:04.793Z,11.57
2023-01-01T19:51:32.083Z,13.50
2023-01-01T19:53:59.091Z,10.23
2023-01-01T19:56:26.546Z,11.70
2023-01-01T19:58:53.605Z,11.00
2023-01-01T20:01:21.030Z,13.93
2023-01-01T20:03:57.116Z,13.47
2023-01-01T20:06:25.349Z,12.40
2023-01-01T20:08:53.223Z,13.13
2023-01-01T20:11:21.190Z,14.47
2023-01-01T20:13:48.784Z,12.00
2023-01-01T20:16:16.076Z,11.47
2023-01-01T20:18:43.177Z,16.50
2023-01-01T20:21:28.891Z,13.37
2023-01-01T20:23:56.114Z,10.63
2023-01-01T20:26:25.710Z,16.17
2023-01-01T20:29:11.315Z,14.27
2023-01-01T20:31:38.790Z,15.10
2023-01-01T20:34:05.835Z,12.60
2023-01-01T20:36:51.784Z,11.47
2023-01-01T20:39:18.755Z,13.23
2023-01-01T20:41:45.934Z,13.47
2023-01-01T20:44:12.979Z,13.53
2023-01-01T20:46:41.292Z,13.33
2023-01-01T20:49:08.739Z,15.17
2023-01-01T20:51:36.045Z,12.93
2023-01-01T20:54:03.518Z,13.77
2023-01-01T20:56:31.702Z,14.47
2023-01-01T20:59:04.442Z,14.53
2023-01-01T21:01:40.133Z,14.97
2023-01-01T21:04:07.156Z,15.00
2023-01-01T21:06:34.652Z,12.40
2023-01-01T21:09:05.009Z,12.70
2023-01-01T21:11:33.591Z,15.73
2023-01-01T21:14:01.094Z,16.40
2023-01-01T21:16:31.789Z,13.87
2023-01-01T21:19:00.991Z,15.37
2023-01-01T21:21:39.039Z,14.60
2023-01-01T21:24:28.752Z,14.03
2023-01-01T21:27:05.831Z,12.03
2023-01-01T21:29:33.658Z,13.67
2023-01-01T21:32:23.250Z,14.47
2023-01-01T21:34:53.114Z,12.30
2023-01-01T21:37:42.025Z,13.80
2023-01-01T21:40:41.337Z,13.83
2023-01-01T21:43:08.516Z,15.53
2023-01-01T21:45:37.246Z,16.63
2023-01-01T21:48:16.198Z,13.47
2023-01-01T21:50:46.151Z,12.50
2023-01-01T21:53:22.480Z,16.37
2023-01-01T21:55:52.497Z,13.53
2023-01-01T21:59:03.810Z,16.63
2023-01-01T22:01:38.500Z,13.93
2023-01-01T22:04:17.901Z,17.20
2023-01-01T22:06:47.387Z,17.40
2023-01-01T22:09:30.110Z,13.73
2023-01-01T22:12:19.704Z,12.73
2023-01-01T22:14:49.305Z,18.10
2023-01-01T22:17:37.326Z,15.30
2023-01-01T22:20:23.000Z,18.67
2023-01-01T22:22:50.184Z,14.33
2023-01-01T22:25:29.225Z,13.80
2023-01-01T22:27:57.034Z,15.07
2023-01-01T22:30:41.133Z,14.60
2023-01-01T22:33:18.504Z,13.37
2023-01-01T22:35:46.160Z,15.50
2023-01-01T22:38:18.024Z,13.27
2023-01-01T22:40:49.567Z,16.33
2023-01-01T22:43:19.657Z,15.20
2023-01-01T22:45:48.963Z,15.27
2023-01-01T22:48:31.416Z,12.47
2023-01-01T22:51:02.695Z,19.67
2023-01-01T22:53:29.744Z,12.03
2023-01-01T22:55:57.044Z,14.33
2023-01-01T22:58:23.938Z,13.17
2023-01-01T23:00:51.715Z,13.93
2023-01-01T23:03:18.683Z,13.37
2023-01-01T23:05:46.058Z,14.43
2023-01-01T23:08:13.224Z,13.67
2023-01-01T23:10:40.447Z,13.47
2023-01-01T23:13:26.175Z,13.20
2023-01-01T23:16:00.734Z,17.10
2023-01-01T23:18:32.694Z,14.90
2023-01-01T23:21:02.045Z,15.73
2023-01-01T23:23:30.114Z,15.07
2023-01-01T23:25:58.998Z,16.40
2023-01-01T23:28:28.377Z,15.17
2023-01-01T23:30:56.200Z,13.33
2023-01-01T23:33:23.626Z,14.97
2023-01-01T23:35:52.049Z,14.17
2023-01-01T23:38:19.163Z,17.63
2023-01-01T23:40:46.377Z,15.50
2023-01-01T23:43:13.572Z,13.87
2023-01-01T23:45:40.994Z,12.17
2023-01-01T23:48:08.580Z,14.87
2023-01-01T23:50:36.372Z,17.37
2023-01-01T23:53:03.439Z,18.20
2023-01-01T23:55:30.737Z,17.20
2023-01-01T23:57:57.701Z,16.20
